createdAt,value
2019-06-27T00:01:43.070Z,100357.00
2019-06-27T00:05:51.403Z,100357.24
2019-06-27T00:09:59.017Z,100359.34
2019-06-27T00:14:06.917Z,100353.62
2019-06-27T00:18:15.066Z,100350.10
2019-06-27T00:22:22.783Z,100350.59
2019-06-27T00:26:30.774Z,100349.62
2019-06-27T00:30:38.663Z,100344.95
2019-06-27T00:34:46.374Z,100340.67
2019-06-27T00:38:54.307Z,100341.02
2019-06-27T00:43:02.176Z,100338.41
2019-06-27T00:47:10.097Z,100335.70
2019-06-27T00:51:18.017Z,100338.75
2019-06-27T00:55:25.782Z,100328.56
2019-06-27T00:59:33.455Z,100337.34
2019-06-27T01:03:41.868Z,100337.77
2019-06-27T01:07:49.330Z,100331.96
2019-06-27T01:11:57.278Z,100327.72
2019-06-27T01:16:05.499Z,100327.12
2019-06-27T01:20:14.321Z,100326.20
2019-06-27T01:24:22.478Z,100330.29
2019-06-27T01:28:30.377Z,100319.30
2019-06-27T01:32:38.908Z,100320.05
2019-06-27T01:36:46.914Z,100325.26
2019-06-27T01:40:54.531Z,100326.12
2019-06-27T01:45:08.695Z,100326.44
2019-06-27T01:49:16.977Z,100324.77
2019-06-27T01:53:24.790Z,100318.28
2019-06-27T01:57:45.517Z,100312.45
2019-06-27T02:01:42.770Z,100315.28
2019-06-27T02:05:50.491Z,100311.20
2019-06-27T02:09:58.491Z,100311.05
2019-06-27T02:14:06.722Z,100311.80
2019-06-27T02:18:14.355Z,100305.58
2019-06-27T02:22:22.271Z,100302.41
2019-06-27T02:26:30.053Z,100292.70
2019-06-27T02:30:42.626Z,100302.23
2019-06-27T02:34:50.886Z,100304.03
2019-06-27T02:38:58.511Z,100303.94
2019-06-27T02:43:06.413Z,100302.70
2019-06-27T02:47:14.728Z,100306.65
2019-06-27T02:51:22.530Z,100307.28
2019-06-27T02:55:31.905Z,100300.36
2019-06-27T02:59:39.608Z,100297.84
2019-06-27T03:03:47.310Z,100295.86
2019-06-27T03:07:55.323Z,100294.55
2019-06-27T03:12:03.222Z,100293.59
2019-06-27T03:16:11.137Z,100294.41
2019-06-27T03:20:19.167Z,100296.01
2019-06-27T03:24:26.973Z,100296.77
2019-06-27T03:28:50.690Z,100288.20
2019-06-27T03:32:45.571Z,100291.34
2019-06-27T03:36:53.455Z,100288.13
2019-06-27T03:41:01.796Z,100290.24
2019-06-27T03:45:15.115Z,100286.39
2019-06-27T03:49:19.568Z,100281.41
2019-06-27T03:53:27.483Z,100282.82
2019-06-27T03:57:35.305Z,100279.02
2019-06-27T04:01:43.430Z,100280.71
2019-06-27T04:05:51.220Z,100288.09
2019-06-27T04:09:59.032Z,100286.60
2019-06-27T04:14:07.553Z,100285.62
2019-06-27T04:18:15.875Z,100287.73
2019-06-27T04:22:23.689Z,100283.82
2019-06-27T04:26:31.683Z,100288.44
2019-06-27T04:30:40.606Z,100284.33
2019-06-27T04:34:48.174Z,100286.50
2019-06-27T04:38:56.136Z,100289.59
2019-06-27T04:43:05.646Z,100285.70
2019-06-27T04:47:13.832Z,100283.41
2019-06-27T04:51:21.639Z,100282.91
2019-06-27T04:55:30.462Z,100276.50
2019-06-27T04:59:52.657Z,100272.36
2019-06-27T05:03:47.931Z,100272.66
2019-06-27T05:07:56.313Z,100272.59
2019-06-27T05:12:04.566Z,100273.73
2019-06-27T05:16:12.371Z,100268.60
2019-06-27T05:20:20.408Z,100268.58
2019-06-27T05:24:28.292Z,100271.52
2019-06-27T05:28:36.311Z,100262.22
2019-06-27T05:32:44.537Z,100267.34
2019-06-27T05:36:52.346Z,100246.77
2019-06-27T05:41:00.758Z,100244.09
2019-06-27T05:45:10.222Z,100248.30
2019-06-27T05:49:18.113Z,100253.77
2019-06-27T05:53:25.967Z,100244.93
2019-06-27T05:57:33.857Z,100249.97
2019-06-27T06:01:41.744Z,100245.29
2019-06-27T06:05:49.565Z,100240.37
2019-06-27T06:09:57.478Z,100237.92
2019-06-27T06:14:05.891Z,100226.28
2019-06-27T06:18:13.689Z,100227.78
2019-06-27T06:22:22.059Z,100235.02
2019-06-27T06:26:30.449Z,100232.16
2019-06-27T06:30:44.553Z,100226.59
2019-06-27T06:34:47.811Z,100213.31
2019-06-27T06:38:55.744Z,100221.11
2019-06-27T06:43:03.552Z,100217.00
2019-06-27T06:47:11.811Z,100206.49
2019-06-27T06:51:19.451Z,100206.49
2019-06-27T06:55:27.194Z,100203.61
2019-06-27T06:59:35.109Z,100203.61
2019-06-27T07:03:43.032Z,100200.58
2019-06-27T07:07:50.873Z,100201.21
2019-06-27T07:11:58.828Z,100201.21
2019-06-27T07:16:06.763Z,100183.75
2019-06-27T07:20:14.978Z,100189.20
2019-06-27T07:24:23.116Z,100186.92
2019-06-27T07:28:30.966Z,100178.20
2019-06-27T07:32:39.437Z,100179.72
2019-06-27T07:36:47.229Z,100182.18
2019-06-27T07:40:56.063Z,100174.06
2019-06-27T07:45:04.488Z,100172.92
2019-06-27T07:49:12.331Z,100159.11
2019-06-27T07:53:20.389Z,100165.38
2019-06-27T07:57:28.655Z,100159.63
2019-06-27T08:01:36.922Z,100160.52
2019-06-27T08:05:45.398Z,100149.84
2019-06-27T08:09:53.191Z,100151.45
2019-06-27T08:14:01.120Z,100148.23
2019-06-27T08:18:09.116Z,100146.54
2019-06-27T08:22:16.928Z,100136.98
2019-06-27T08:26:27.031Z,100140.97
2019-06-27T08:30:35.188Z,100139.42
2019-06-27T08:34:43.269Z,100133.28
2019-06-27T08:38:51.109Z,100126.38
2019-06-27T08:42:59.017Z,100123.94
2019-06-27T08:47:07.067Z,100123.86
2019-06-27T08:51:15.172Z,100119.07
2019-06-27T08:55:22.958Z,100117.52
2019-06-27T08:59:30.978Z,100106.69
2019-06-27T09:03:39.671Z,100110.07
2019-06-27T09:07:47.539Z,100106.52
2019-06-27T09:11:56.468Z,100100.05
2019-06-27T09:16:04.408Z,100089.90
2019-06-27T09:20:12.598Z,100081.69
2019-06-27T09:24:20.616Z,100085.94
2019-06-27T09:28:28.473Z,100077.10
2019-06-27T09:32:36.540Z,100074.67
2019-06-27T09:36:44.989Z,100073.38
2019-06-27T09:40:52.910Z,100061.42
2019-06-27T09:45:00.893Z,100052.49
2019-06-27T09:49:08.648Z,100055.73
2019-06-27T09:53:16.445Z,100046.61
2019-06-27T09:57:24.616Z,100034.30
2019-06-27T10:01:33.681Z,100030.70
2019-06-27T10:05:41.912Z,100017.59
2019-06-27T10:09:49.825Z,100019.70
2019-06-27T10:13:57.341Z,100007.57
2019-06-27T10:18:05.417Z,99999.88
2019-06-27T10:22:12.926Z,99994.11
2019-06-27T10:26:20.765Z,99992.31
2019-06-27T10:30:29.066Z,99986.72
2019-06-27T10:34:36.866Z,99978.58
2019-06-27T10:38:45.181Z,99963.09
2019-06-27T10:42:53.556Z,99962.66
2019-06-27T10:47:01.346Z,99951.94
2019-06-27T10:51:09.739Z,99941.58
2019-06-27T10:55:17.667Z,99939.51
2019-06-27T10:59:25.313Z,99935.00
2019-06-27T11:03:33.309Z,99929.80
2019-06-27T11:07:41.368Z,99928.05
2019-06-27T11:11:49.834Z,99919.20
2019-06-27T11:15:57.689Z,99919.41
2019-06-27T11:20:06.220Z,99907.47
2019-06-27T11:24:14.442Z,99903.23
2019-06-27T11:28:22.698Z,99903.36
2019-06-27T11:32:31.445Z,99895.20
2019-06-27T11:36:39.433Z,99890.96
2019-06-27T11:40:47.260Z,99885.19
2019-06-27T11:44:55.016Z,99874.84
2019-06-27T11:49:02.901Z,99869.48
2019-06-27T11:53:10.522Z,99864.44
2019-06-27T11:57:18.814Z,99864.28
2019-06-27T12:01:26.770Z,99861.89
2019-06-27T12:05:34.273Z,99849.63
2019-06-27T12:09:42.225Z,99844.21
2019-06-27T12:13:50.462Z,99840.80
2019-06-27T12:17:58.171Z,99842.20
2019-06-27T12:22:06.113Z,99829.55
2019-06-27T12:26:14.071Z,99826.09
2019-06-27T12:30:22.104Z,99808.59
2019-06-27T12:34:30.077Z,99809.06
2019-06-27T12:38:37.726Z,99801.69
2019-06-27T12:42:45.545Z,99796.59
2019-06-27T12:46:53.472Z,99798.97
2019-06-27T12:51:01.363Z,99797.44
2019-06-27T12:55:09.493Z,99785.53
2019-06-27T12:59:17.303Z,99784.88
2019-06-27T13:03:25.213Z,99773.92
2019-06-27T13:07:34.206Z,99770.72
2019-06-27T13:11:42.037Z,99764.31
2019-06-27T13:15:49.902Z,99749.50
2019-06-27T13:19:57.844Z,99748.23
2019-06-27T13:24:05.837Z,99744.48
2019-06-27T13:28:13.995Z,99740.81
2019-06-27T13:32:25.269Z,99734.87
2019-06-27T13:36:33.216Z,99730.65
2019-06-27T13:40:41.466Z,99724.41
2019-06-27T13:44:49.172Z,99713.72
2019-06-27T13:48:57.469Z,99708.35
2019-06-27T13:53:05.638Z,99705.33
2019-06-27T13:57:13.323Z,99705.05
2019-06-27T14:01:21.423Z,99690.02
2019-06-27T14:05:29.403Z,99692.44
2019-06-27T14:09:51.011Z,99686.34
2019-06-27T14:13:46.575Z,99673.31
2019-06-27T14:17:54.366Z,99673.09
2019-06-27T14:22:02.610Z,99667.04
2019-06-27T14:26:10.741Z,99665.58
2019-06-27T14:30:18.938Z,99649.81
2019-06-27T14:34:26.949Z,99643.71
2019-06-27T14:38:34.965Z,99645.03
2019-06-27T14:42:42.782Z,99636.05
2019-06-27T14:46:50.625Z,99622.88
2019-06-27T14:50:58.596Z,99624.92
2019-06-27T14:55:07.155Z,99617.33
2019-06-27T14:59:15.125Z,99622.20
2019-06-27T15:03:23.235Z,99611.74
2019-06-27T15:07:31.494Z,99601.75
2019-06-27T15:11:39.716Z,99596.18
2019-06-27T15:15:48.030Z,99592.50
2019-06-27T15:19:59.270Z,99586.50
2019-06-27T15:24:05.799Z,99588.77
2019-06-27T15:28:14.533Z,99579.73
2019-06-27T15:32:22.630Z,99574.25
2019-06-27T15:36:30.417Z,99581.82
2019-06-27T15:40:38.272Z,99572.64
2019-06-27T15:44:46.077Z,99573.77
2019-06-27T15:48:54.065Z,99571.84
2019-06-27T15:53:02.442Z,99563.67
2019-06-27T15:57:10.565Z,99560.16
2019-06-27T16:01:18.375Z,99562.09
2019-06-27T16:05:26.457Z,99555.24
2019-06-27T16:09:36.112Z,99552.25
2019-06-27T16:13:43.922Z,99552.00
2019-06-27T16:17:52.064Z,99550.07
2019-06-27T16:21:59.931Z,99553.13
2019-06-27T16:26:08.078Z,99543.25
2019-06-27T16:30:16.077Z,99545.17
2019-06-27T16:34:23.761Z,99550.40
2019-06-27T16:38:31.751Z,99559.73
2019-06-27T16:42:39.458Z,99559.44
2019-06-27T16:46:47.939Z,99560.25
2019-06-27T16:50:55.848Z,99550.92
2019-06-27T16:55:03.730Z,99561.39
2019-06-27T16:59:12.183Z,99552.89
2019-06-27T17:03:21.631Z,99553.16
2019-06-27T17:07:29.775Z,99553.16
2019-06-27T17:11:39.395Z,99557.80
2019-06-27T17:15:48.130Z,99553.91
2019-06-27T17:19:56.349Z,99554.42
2019-06-27T17:24:04.196Z,99553.30
2019-06-27T17:28:12.154Z,99561.31
2019-06-27T17:32:19.962Z,99551.41
2019-06-27T17:36:27.986Z,99553.13
2019-06-27T17:40:36.454Z,99557.23
2019-06-27T17:44:44.526Z,99563.79
2019-06-27T17:48:52.535Z,99564.35
2019-06-27T17:53:00.711Z,99563.00
2019-06-27T17:57:08.472Z,99573.91
2019-06-27T18:01:17.710Z,99570.38
2019-06-27T18:05:25.474Z,99567.53
2019-06-27T18:09:33.250Z,99571.53
2019-06-27T18:13:41.584Z,99578.57
2019-06-27T18:17:49.696Z,99578.57
2019-06-27T18:21:58.007Z,99568.61
2019-06-27T18:26:06.008Z,99590.70
2019-06-27T18:30:14.116Z,99590.70
2019-06-27T18:34:22.311Z,99580.80
2019-06-27T18:38:30.365Z,99587.65
2019-06-27T18:42:38.190Z,99576.19
2019-06-27T18:46:49.273Z,99591.41
2019-06-27T18:50:57.186Z,99590.03
2019-06-27T18:55:05.497Z,99591.67
2019-06-27T18:59:13.423Z,99603.79
2019-06-27T19:03:22.347Z,99597.57
2019-06-27T19:07:44.495Z,99598.05
2019-06-27T19:11:40.623Z,99599.11
2019-06-27T19:15:48.453Z,99595.41
2019-06-27T19:19:59.607Z,99599.91
2019-06-27T19:24:26.314Z,99609.61
2019-06-27T19:28:34.370Z,99601.42
2019-06-27T19:32:42.224Z,99608.23
2019-06-27T19:36:50.619Z,99606.34
2019-06-27T19:40:58.680Z,99605.24
2019-06-27T19:45:06.852Z,99609.01
2019-06-27T19:49:15.304Z,99597.96
2019-06-27T19:53:23.522Z,99590.20
2019-06-27T19:57:33.936Z,99590.20
2019-06-27T20:01:42.218Z,99586.03
2019-06-27T20:05:49.819Z,99581.31
2019-06-27T20:09:57.932Z,99573.81
2019-06-27T20:14:06.061Z,99575.22
2019-06-27T20:18:13.866Z,99580.88
2019-06-27T20:22:21.876Z,99574.77
2019-06-27T20:26:29.482Z,99583.48
2019-06-27T20:30:37.475Z,99579.30
2019-06-27T20:34:45.318Z,99578.50
2019-06-27T20:38:53.616Z,99575.59
2019-06-27T20:43:01.865Z,99564.66
2019-06-27T20:47:09.556Z,99564.09
2019-06-27T20:51:17.432Z,99561.90
2019-06-27T20:55:25.493Z,99557.37
2019-06-27T20:59:33.288Z,99547.73
2019-06-27T21:03:41.311Z,99542.75
2019-06-27T21:07:49.165Z,99555.83
2019-06-27T21:11:57.338Z,99554.48
2019-06-27T21:16:05.544Z,99543.89
2019-06-27T21:20:14.060Z,99542.29
2019-06-27T21:24:22.383Z,99548.77
2019-06-27T21:28:30.825Z,99539.10
2019-06-27T21:32:38.548Z,99530.38
2019-06-27T21:36:46.951Z,99521.63
2019-06-27T21:40:54.952Z,99502.99
2019-06-27T21:45:02.793Z,99502.11
2019-06-27T21:49:11.676Z,99491.47
2019-06-27T21:53:19.413Z,99488.94
2019-06-27T21:57:27.308Z,99488.88
2019-06-27T22:01:35.863Z,99481.98
2019-06-27T22:05:43.976Z,99489.47
2019-06-27T22:09:51.993Z,99484.31
2019-06-27T22:14:00.012Z,99486.52
2019-06-27T22:18:07.911Z,99486.16
2019-06-27T22:22:16.140Z,99490.55
2019-06-27T22:26:24.057Z,99475.48
2019-06-27T22:30:32.879Z,99475.03
2019-06-27T22:34:40.775Z,99466.03
2019-06-27T22:39:06.288Z,99462.55
2019-06-27T22:43:32.173Z,99456.24
2019-06-27T22:47:57.743Z,99444.41
2019-06-27T22:52:31.689Z,99448.06
2019-06-27T22:56:40.318Z,99454.85
2019-06-27T23:00:48.062Z,99450.30
2019-06-27T23:04:56.340Z,99444.09
2019-06-27T23:09:05.280Z,99439.55
2019-06-27T23:13:13.511Z,99438.53
2019-06-27T23:17:21.338Z,99420.42
2019-06-27T23:21:29.111Z,99417.25
2019-06-27T23:25:37.185Z,99409.37
2019-06-27T23:29:45.125Z,99408.33
2019-06-27T23:33:52.960Z,99407.42
2019-06-27T23:38:00.750Z,99405.76
2019-06-27T23:42:09.204Z,99408.00
2019-06-27T23:46:34.660Z,99396.84
2019-06-27T23:50:43.359Z,99398.28
2019-06-27T23:54:51.275Z,99396.14
2019-06-27T23:58:59.111Z,99389.62
